Time;durP1;ratioP1;P1;durP2;ratioP2;P2;SDS_P1;SDS_P2;PMS_P1;PMS_P2;Temp;Humidity;BMP_temperature;BMP_pressure;BME280_temperature;BME280_humidity;BME280_pressure;Samples;Min_cycle;Max_cycle;Signal;HPM_P1;HPM_P2
2021/07/29 00:02:01;;;;;;;8.27;4.85;;;;;;;15.27;71.99;99889.25;10325721;28;20344;-77
2021/07/29 00:07:05;;;;;;;4.85;4.05;;;;;;;15.13;73.64;99897.19;10317730;28;21413;-77
2021/07/29 00:12:08;;;;;;;10.48;5.63;;;;;;;14.48;78.45;99881.59;10312458;28;20238;-76
2021/07/29 00:17:27;;;;;;;8.43;4.78;;;;;;;14.20;79.57;99897.94;10302836;28;20243;-77
2021/07/29 00:22:30;;;;;;;8.15;5.90;;;;;;;14.07;81.98;99902.94;10309495;28;20708;-76
2021/07/29 00:27:34;;;;;;;7.22;5.47;;;;;;;14.16;82.41;99910.94;10309405;28;20239;-76
2021/07/29 00:32:39;;;;;;;9.82;6.10;;;;;;;14.23;82.89;99896.78;10309614;28;20269;-77
2021/07/29 00:37:43;;;;;;;8.73;6.22;;;;;;;14.16;83.09;99904.69;10308045;28;20235;-76
2021/07/29 00:42:46;;;;;;;8.98;6.32;;;;;;;14.14;85.46;99893.19;10308855;28;20317;-76
2021/07/29 00:47:50;;;;;;;10.70;6.15;;;;;;;13.88;85.49;99888.66;10307756;28;20786;-76
2021/07/29 00:53:10;;;;;;;8.10;5.28;;;;;;;13.58;86.38;99881.84;10316243;28;20246;-76
2021/07/29 00:58:13;;;;;;;10.10;5.18;;;;;;;13.34;86.62;99851.91;10297976;28;20740;-76
2021/07/29 01:03:17;;;;;;;8.27;5.10;;;;;;;13.36;86.31;99844.53;10266896;28;20288;-75
2021/07/29 01:08:20;;;;;;;8.88;5.53;;;;;;;13.35;86.26;99840.97;10269366;28;20244;-75
2021/07/29 01:13:22;;;;;;;7.72;4.75;;;;;;;13.26;86.25;99841.91;10267305;28;20935;-75
2021/07/29 01:18:27;;;;;;;7.97;5.28;;;;;;;13.44;86.31;99850.03;10268086;28;20297;-76
2021/07/29 01:23:31;;;;;;;8.32;5.20;;;;;;;13.53;86.39;99845.53;10288789;28;20885;-75
2021/07/29 01:28:34;;;;;;;7.07;4.68;;;;;;;13.47;85.65;99842.47;10313624;28;20247;-75
2021/07/29 01:33:37;;;;;;;7.47;4.97;;;;;;;13.53;84.74;99832.03;10314689;28;20350;-77
2021/07/29 01:38:41;;;;;;;7.78;4.75;;;;;;;13.48;84.64;99822.56;10311846;28;20227;-76
2021/07/29 01:43:44;;;;;;;6.57;4.95;;;;;;;13.46;84.74;99824.56;10325642;28;21392;-76
2021/07/29 01:48:47;;;;;;;6.65;4.65;;;;;;;13.46;84.87;99832.66;10312918;28;20440;-77
2021/07/29 01:53:51;;;;;;;8.02;4.55;;;;;;;13.53;83.97;99824.78;10312508;28;20324;-76
2021/07/29 01:58:54;;;;;;;8.10;4.57;;;;;;;13.46;83.11;99829.09;10313337;28;20235;-76
2021/07/29 02:03:57;;;;;;;8.13;4.63;;;;;;;13.55;83.05;99813.81;10316625;28;20243;-75
2021/07/29 02:09:01;;;;;;;6.07;4.28;;;;;;;13.48;82.95;99808.22;10315888;28;20239;-76
2021/07/29 02:14:05;;;;;;;9.40;5.13;;;;;;;13.33;82.26;99813.31;10315358;28;20239;-77
2021/07/29 02:19:08;;;;;;;8.93;4.78;;;;;;;13.38;82.67;99837.13;10318198;28;20293;-77
2021/07/29 02:24:13;;;;;;;6.88;4.18;;;;;;;13.30;82.84;99828.94;10319213;28;20238;-76
2021/07/29 02:29:16;;;;;;;6.40;4.32;;;;;;;13.36;82.87;99817.56;10314291;28;21422;-75
2021/07/29 02:34:18;;;;;;;6.63;4.65;;;;;;;13.46;82.20;99816.47;10312435;28;20239;-77
2021/07/29 02:39:23;;;;;;;7.85;4.35;;;;;;;13.54;82.42;99825.63;10320714;28;20785;-76
2021/07/29 02:44:25;;;;;;;7.30;4.15;;;;;;;13.56;82.14;99826.34;10318222;28;20288;-77
2021/07/29 02:49:28;;;;;;;7.18;4.25;;;;;;;13.60;81.85;99822.31;10331842;28;21482;-77
2021/07/29 02:54:33;;;;;;;7.25;4.18;;;;;;;13.68;81.55;99825.91;10312666;28;20238;-77
2021/07/29 02:59:36;;;;;;;7.18;4.40;;;;;;;13.69;81.82;99824.06;10312611;28;20246;-77
2021/07/29 03:04:39;;;;;;;5.38;4.05;;;;;;;13.74;81.33;99823.56;10311088;28;20235;-75
2021/07/29 03:09:43;;;;;;;5.32;3.10;;;;;;;13.58;80.29;99843.22;10315286;28;20301;-75
2021/07/29 03:14:46;;;;;;;5.90;3.97;;;;;;;13.50;80.96;99830.50;10313155;28;20239;-77
2021/07/29 03:19:49;;;;;;;7.22;4.47;;;;;;;13.48;81.69;99817.16;10314481;28;20231;-77
2021/07/29 03:24:53;;;;;;;6.97;3.72;;;;;;;13.28;81.83;99815.63;10318586;28;20234;-78
2021/07/29 03:29:56;;;;;;;5.38;4.10;;;;;;;13.36;81.71;99817.56;10323276;28;20254;-78
2021/07/29 03:34:59;;;;;;;7.05;4.03;;;;;;;13.35;82.33;99830.16;10319565;28;20974;-78
2021/07/29 03:40:06;;;;;;;7.90;4.32;;;;;;;13.48;81.67;99830.66;10322462;28;20246;-76
2021/07/29 03:45:10;;;;;;;5.68;4.05;;;;;;;13.38;81.37;99848.75;10297908;28;20242;-77
2021/07/29 03:50:13;;;;;;;7.30;4.88;;;;;;;13.35;80.97;99853.59;10302176;28;20284;-77
2021/07/29 03:55:18;;;;;;;5.95;3.95;;;;;;;13.46;80.66;99853.38;10309491;28;20285;-76
2021/07/29 04:00:21;;;;;;;8.27;4.38;;;;;;;13.53;81.02;99854.47;10310289;28;20227;-77
2021/07/29 04:05:23;;;;;;;6.45;3.97;;;;;;;13.48;80.06;99849.53;10312735;28;20318;-77
2021/07/29 04:10:27;;;;;;;6.57;3.90;;;;;;;13.60;80.04;99855.56;10323522;28;20269;-77
2021/07/29 04:15:30;;;;;;;9.63;4.20;;;;;;;13.65;79.54;99857.75;10312342;28;20250;-76
2021/07/29 04:20:33;;;;;;;5.35;3.80;;;;;;;13.58;79.12;99867.50;10315187;28;20247;-77
2021/07/29 04:25:37;;;;;;;6.00;3.75;;;;;;;13.66;78.57;99860.31;10314554;28;20242;-77
2021/07/29 04:30:40;;;;;;;8.50;3.80;;;;;;;13.71;78.46;99859.81;10311231;28;20238;-77
2021/07/29 04:35:43;;;;;;;6.85;3.70;;;;;;;13.76;77.89;99859.34;10308868;28;20254;-75
2021/07/29 04:40:47;;;;;;;6.65;3.55;;;;;;;13.66;77.57;99851.38;10316944;28;20238;-76
2021/07/29 04:45:51;;;;;;;5.63;3.50;;;;;;;13.65;77.03;99850.50;10319106;28;20716;-77
2021/07/29 04:50:54;;;;;;;4.00;3.40;;;;;;;13.69;76.37;99849.19;10316768;28;20239;-77
2021/07/29 04:55:59;;;;;;;4.78;3.33;;;;;;;13.70;76.16;99863.53;10322824;28;20237;-78
2021/07/29 05:01:04;;;;;;;4.07;3.00;;;;;;;13.68;75.33;99858.28;10327990;28;20329;-77
2021/07/29 05:06:07;;;;;;;4.50;2.90;;;;;;;13.75;75.16;99858.53;10342773;28;20260;-77
2021/07/29 05:11:11;;;;;;;5.35;3.63;;;;;;;13.93;74.98;99859.31;10321250;28;20234;-76
2021/07/29 05:16:14;;;;;;;5.78;3.25;;;;;;;13.92;74.93;99863.00;10314013;28;20473;-77
2021/07/29 05:21:17;;;;;;;9.00;3.50;;;;;;;14.09;74.29;99863.13;10315147;28;20241;-77
2021/07/29 05:26:21;;;;;;;5.18;3.00;;;;;;;14.12;73.54;99868.19;10317909;28;20235;-77
2021/07/29 05:31:24;;;;;;;3.60;2.65;;;;;;;14.12;73.49;99857.38;10311909;28;20261;-77
2021/07/29 05:36:27;;;;;;;5.15;3.20;;;;;;;14.25;73.50;99875.88;10315302;28;20223;-77
2021/07/29 05:41:34;;;;;;;6.90;2.97;;;;;;;14.31;72.48;99870.66;10327456;28;20329;-77
2021/07/29 05:46:37;;;;;;;4.30;3.35;;;;;;;14.38;72.06;99871.75;10317204;28;20798;-77
2021/07/29 05:51:40;;;;;;;8.23;2.78;;;;;;;14.43;72.04;99875.84;10318508;28;20243;-77
2021/07/29 05:56:44;;;;;;;5.72;3.38;;;;;;;14.19;72.32;99880.06;10331340;28;20992;-77
2021/07/29 06:01:47;;;;;;;7.75;2.97;;;;;;;14.13;72.68;99880.72;10354477;28;20300;-77
2021/07/29 06:06:50;;;;;;;7.68;3.88;;;;;;;14.38;71.50;99884.38;10352973;28;20239;-77
2021/07/29 06:11:54;;;;;;;5.32;3.20;;;;;;;15.05;70.55;99888.03;10357327;28;20245;-76
2021/07/29 06:16:57;;;;;;;7.43;2.90;;;;;;;15.14;69.31;99894.31;10351165;28;20258;-77
2021/07/29 06:22:01;;;;;;;7.35;3.38;;;;;;;14.80;69.39;99883.56;10325477;28;20235;-77
2021/07/29 06:27:06;;;;;;;8.27;2.85;;;;;;;14.92;68.77;99887.69;10310895;28;20643;-77
2021/07/29 06:32:09;;;;;;;9.15;3.42;;;;;;;14.59;69.72;99892.13;10312031;28;20317;-76
2021/07/29 06:37:12;;;;;;;5.63;3.70;;;;;;;14.88;69.61;99891.72;10311622;28;20243;-77
2021/07/29 06:42:16;;;;;;;8.00;3.67;;;;;;;15.33;68.76;99885.06;10315140;28;20275;-76
2021/07/29 06:47:20;;;;;;;7.55;4.47;;;;;;;14.93;68.58;99883.13;10324082;28;20329;-77
2021/07/29 06:52:24;;;;;;;4.38;3.10;;;;;;;14.97;67.84;99898.81;10324242;28;20730;-77
2021/07/29 06:57:28;;;;;;;8.65;4.00;;;;;;;14.95;69.23;99895.47;10317299;28;20763;-77
2021/07/29 07:02:31;;;;;;;7.32;4.47;;;;;;;15.08;68.03;99903.09;10313738;28;20269;-76
2021/07/29 07:07:35;;;;;;;7.82;3.97;;;;;;;15.21;67.55;99905.31;10309814;28;20242;-76
2021/07/29 07:12:39;;;;;;;8.35;4.25;;;;;;;15.41;65.96;99895.06;10313284;28;20247;-77
2021/07/29 07:17:42;;;;;;;6.93;4.22;;;;;;;15.45;66.13;99909.97;10315160;28;20231;-77
2021/07/29 07:22:45;;;;;;;7.97;4.03;;;;;;;15.38;65.95;99908.94;10316663;28;20796;-78
2021/07/29 07:33:49;;;;;;;7.85;5.55;;;;;;;15.69;63.38;99904.56;8913728;32;20572;-77
2021/07/29 07:38:53;;;;;;;7.72;5.53;;;;;;;16.47;62.90;99926.66;10430070;28;20217;-75
2021/07/29 07:43:56;;;;;;;11.30;6.70;;;;;;;16.89;60.45;99901.06;10453141;28;20798;-77
2021/07/29 07:49:00;;;;;;;6.03;5.43;;;;;;;16.45;58.76;99907.84;10463766;28;20231;-75
2021/07/29 07:54:03;;;;;;;9.93;5.55;;;;;;;16.27;58.80;99918.91;10442906;28;20235;-76
2021/07/29 07:59:06;;;;;;;7.15;4.72;;;;;;;16.89;58.13;99911.91;10444521;28;20269;-76
2021/07/29 08:04:10;;;;;;;9.35;4.93;;;;;;;17.18;56.96;99909.41;10444675;28;20697;-76
2021/07/29 08:09:13;;;;;;;7.45;4.45;;;;;;;16.43;58.01;99903.63;10443677;27;20244;-76
2021/07/29 08:14:16;;;;;;;7.60;4.70;;;;;;;16.17;58.96;99903.84;10439313;28;20306;-76
2021/07/29 08:19:20;;;;;;;5.90;4.70;;;;;;;16.17;60.34;99901.13;10447913;28;20263;-76
2021/07/29 08:24:23;;;;;;;7.85;5.63;;;;;;;16.37;59.96;99902.44;10439309;28;20242;-75
2021/07/29 08:29:26;;;;;;;5.65;4.38;;;;;;;16.23;58.14;99906.69;10444467;28;20232;-76
2021/07/29 08:34:30;;;;;;;9.30;5.40;;;;;;;16.16;58.80;99913.81;10440910;28;20291;-76
2021/07/29 08:39:33;;;;;;;6.13;5.00;;;;;;;16.85;56.81;99905.16;10421370;28;20767;-76
2021/07/29 08:44:36;;;;;;;6.07;4.22;;;;;;;16.83;54.32;99894.47;10409408;28;20364;-76
2021/07/29 08:49:42;;;;;;;4.72;3.67;;;;;;;16.77;54.49;99900.63;10417959;28;20624;-76
2021/07/29 08:54:47;;;;;;;5.93;3.63;;;;;;;17.16;54.11;99897.88;10412003;28;21457;-75
2021/07/29 08:59:49;;;;;;;6.45;3.78;;;;;;;16.34;55.32;99928.03;10419455;28;20243;-75
2021/07/29 09:05:09;;;;;;;5.82;4.05;;;;;;;17.04;55.58;99902.00;10417369;28;20252;-76
2021/07/29 09:10:23;;;;;;;4.75;2.63;;;;;;;16.99;54.44;99909.84;10417447;28;20289;-76
2021/07/29 09:15:26;;;;;;;5.80;3.40;;;;;;;17.72;52.24;99899.50;10384364;28;20234;-76
2021/07/29 09:20:31;;;;;;;6.45;3.42;;;;;;;17.87;51.05;99903.13;10383852;28;20248;-75
2021/07/29 09:25:34;;;;;;;4.70;4.20;;;;;;;17.91;51.87;99899.88;10376643;28;20233;-75
2021/07/29 09:30:37;;;;;;;3.67;3.38;;;;;;;17.25;52.89;99914.97;10370277;28;20229;-76
2021/07/29 09:35:44;;;;;;;5.53;3.70;;;;;;;17.18;52.81;99912.13;10374317;28;20241;-75
2021/07/29 09:40:53;;;;;;;5.25;3.78;;;;;;;17.91;53.69;99915.34;10368207;28;20234;-76
2021/07/29 09:45:57;;;;;;;4.50;3.30;;;;;;;18.61;49.29;99921.44;10373796;28;20312;-76
2021/07/29 09:51:01;;;;;;;6.40;3.13;;;;;;;19.29;48.25;99919.38;10371698;28;20226;-76
2021/07/29 09:56:08;;;;;;;5.75;2.72;;;;;;;18.40;48.31;99914.84;10393020;28;20241;-77
2021/07/29 10:01:31;;;;;;;3.50;2.63;;;;;;;18.39;48.68;99910.44;10409658;28;20252;-77
2021/07/29 10:06:37;;;;;;;7.07;2.75;;;;;;;18.30;50.30;99928.72;10411576;28;20263;-77
2021/07/29 10:11:45;;;;;;;5.40;3.25;;;;;;;18.01;49.32;99915.09;10408841;28;20640;-77
2021/07/29 10:16:50;;;;;;;4.88;3.65;;;;;;;17.63;49.21;99917.75;10395662;28;20236;-76
2021/07/29 10:21:55;;;;;;;7.20;3.58;;;;;;;17.68;48.35;99921.59;10401059;28;20240;-76
2021/07/29 10:27:11;;;;;;;7.00;3.90;;;;;;;16.97;49.72;99920.00;10371910;28;20598;-76
2021/07/29 10:32:13;;;;;;;6.53;4.20;;;;;;;17.01;50.81;99948.50;10370333;28;20316;-76
2021/07/29 10:37:41;;;;;;;4.32;3.50;;;;;;;18.54;47.58;99935.78;10371226;28;20726;-77
2021/07/29 10:42:44;;;;;;;6.60;3.60;;;;;;;18.01;48.35;99934.13;10371358;28;20279;-76
2021/07/29 10:47:47;;;;;;;5.82;3.60;;;;;;;17.64;49.44;99946.63;10359351;28;72330;-77
2021/07/29 10:52:53;;;;;;;6.53;3.97;;;;;;;18.61;47.16;99927.72;10357064;28;20584;-76
2021/07/29 10:58:08;;;;;;;5.90;3.67;;;;;;;17.84;47.89;99947.81;10350057;28;20324;-75
2021/07/29 11:03:24;;;;;;;5.93;3.83;;;;;;;18.25;48.18;99950.19;10359799;28;20249;-76
2021/07/29 11:08:29;;;;;;;7.85;3.60;;;;;;;18.76;46.76;99946.75;10391364;28;20274;-76
2021/07/29 11:13:34;;;;;;;11.45;4.07;;;;;;;18.27;47.48;99959.00;10389832;28;20246;-75
2021/07/29 11:18:37;;;;;;;6.35;4.05;;;;;;;18.08;49.17;99954.09;10388304;28;20252;-76
2021/07/29 11:23:42;;;;;;;5.30;3.72;;;;;;;18.04;48.30;99969.06;10405926;28;20877;-76
2021/07/29 11:28:45;;;;;;;7.93;3.88;;;;;;;17.93;49.82;99952.13;10389283;28;20248;-75
2021/07/29 11:33:59;;;;;;;10.55;4.15;;;;;;;17.96;49.80;99956.34;10389381;28;20233;-74
2021/07/29 11:39:07;;;;;;;5.15;3.75;;;;;;;17.77;49.36;99951.41;10392492;28;20242;-75
2021/07/29 11:44:10;;;;;;;5.80;3.22;;;;;;;18.42;48.24;99961.72;10390595;28;20248;-73
2021/07/29 11:49:13;;;;;;;6.00;3.35;;;;;;;19.43;46.25;99946.56;10468375;28;20236;-76
2021/07/29 11:54:24;;;;;;;5.57;3.53;;;;;;;19.57;45.63;99935.84;10473290;28;20240;-75
2021/07/29 11:59:27;;;;;;;5.63;3.72;;;;;;;19.08;46.09;99937.34;10471093;28;20240;-76
2021/07/29 12:04:32;;;;;;;3.97;3.45;;;;;;;19.32;45.67;99941.63;10474232;28;20239;-75
2021/07/29 12:09:41;;;;;;;4.60;3.30;;;;;;;19.34;46.18;99944.16;10474360;28;20239;-75
2021/07/29 12:14:44;;;;;;;5.43;3.63;;;;;;;19.05;47.17;99943.19;10473952;28;20232;-77
2021/07/29 12:19:57;;;;;;;5.70;3.40;;;;;;;19.30;44.95;99948.28;10478746;28;20228;-76
2021/07/29 12:25:02;;;;;;;5.43;2.72;;;;;;;18.54;46.23;99943.06;10479387;28;20708;-76
2021/07/29 12:30:06;;;;;;;3.78;2.88;;;;;;;19.43;44.99;99962.06;10478776;28;20251;-76
2021/07/29 12:35:20;;;;;;;4.47;3.15;;;;;;;20.53;43.71;99944.41;10479830;28;20243;-76
2021/07/29 12:40:27;;;;;;;3.58;2.80;;;;;;;20.42;41.15;99951.25;10477826;28;20235;-76
2021/07/29 12:45:48;;;;;;;5.10;2.60;;;;;;;20.44;40.10;99916.44;10478660;28;20265;-76
2021/07/29 12:50:51;;;;;;;4.63;3.15;;;;;;;20.65;40.40;99928.31;10477315;28;20366;-75
2021/07/29 12:55:56;;;;;;;5.60;2.90;;;;;;;20.47;40.82;99931.56;10477117;28;20271;-75
2021/07/29 13:00:59;;;;;;;3.53;2.70;;;;;;;21.57;38.68;99927.00;10477552;28;20233;-74
2021/07/29 13:06:03;;;;;;;5.35;3.05;;;;;;;21.73;37.32;99940.28;10482888;28;20243;-75
2021/07/29 13:11:08;;;;;;;7.32;2.80;;;;;;;21.20;40.05;99942.88;10466908;28;20701;-75
2021/07/29 13:16:12;;;;;;;5.65;2.85;;;;;;;21.30;38.86;99931.56;10481680;28;20258;-75
2021/07/29 13:21:16;;;;;;;6.22;3.00;;;;;;;20.81;39.43;99938.06;10479728;28;20228;-75
2021/07/29 13:26:20;;;;;;;5.25;2.70;;;;;;;20.57;39.28;99918.44;10479408;28;20254;-76
2021/07/29 13:31:23;;;;;;;6.60;2.92;;;;;;;20.04;41.23;99934.38;10481738;28;20244;-75
2021/07/29 13:36:31;;;;;;;6.05;3.03;;;;;;;20.91;39.35;99920.25;10483712;28;20373;-74
2021/07/29 13:41:35;;;;;;;4.90;2.90;;;;;;;19.90;41.66;99938.88;10481187;28;20616;-74
2021/07/29 13:46:38;;;;;;;4.40;2.60;;;;;;;20.01;40.62;99921.13;10451570;28;20236;-75
2021/07/29 13:51:42;;;;;;;3.70;2.38;;;;;;;19.08;41.95;99940.06;10436084;28;20327;-74
2021/07/29 13:56:46;;;;;;;8.57;3.33;;;;;;;19.57;41.28;99944.00;10438631;28;20225;-74
2021/07/29 14:01:49;;;;;;;4.88;2.90;;;;;;;19.53;41.51;99948.09;10437667;28;20233;-74
2021/07/29 14:06:52;;;;;;;4.72;2.60;;;;;;;19.39;41.23;99944.41;10436107;28;20735;-74
2021/07/29 14:11:56;;;;;;;2.67;2.40;;;;;;;19.28;43.05;99948.50;10436156;28;20320;-74
2021/07/29 14:16:59;;;;;;;6.38;3.15;;;;;;;18.50;44.15;99942.63;10428749;28;21533;-75
2021/07/29 14:27:46;;;;;;;5.88;3.25;;;;;;;19.05;43.06;99942.34;10458422;28;20717;-75
2021/07/29 14:32:49;;;;;;;3.85;2.97;;;;;;;18.79;43.94;99960.84;10477159;28;20246;-75
2021/07/29 14:37:53;;;;;;;4.07;2.83;;;;;;;18.83;44.32;99963.19;10461462;28;20652;-76
2021/07/29 14:42:57;;;;;;;7.22;3.40;;;;;;;18.45;48.49;99955.91;10478210;28;20224;-75
2021/07/29 14:53:21;;;;;;;9.27;3.03;;;;;;;21.09;40.74;99949.78;10476910;28;20244;-75
2021/07/29 16:08:00;;;;;;;5.75;2.90;;;;;;;20.22;43.14;99953.81;10480688;28;20761;-75
2021/07/29 16:13:06;;;;;;;7.75;3.25;;;;;;;20.84;41.34;99949.41;10461565;28;20247;-75
2021/07/29 16:18:10;;;;;;;4.78;2.63;;;;;;;21.26;40.85;99944.81;10479201;28;20251;-74
2021/07/29 16:23:13;;;;;;;5.45;3.05;;;;;;;21.86;40.12;99942.22;10481656;28;20240;-75
2021/07/29 16:28:19;;;;;;;4.20;3.00;;;;;;;22.25;38.93;99941.38;10460955;28;20612;-75
2021/07/29 16:33:23;;;;;;;8.07;3.17;;;;;;;22.51;38.80;99937.78;10480561;28;20355;-74
2021/07/29 16:38:26;;;;;;;5.72;3.47;;;;;;;21.41;40.99;99944.63;10482569;28;21434;-74
2021/07/29 16:43:29;;;;;;;4.93;3.15;;;;;;;20.32;42.98;99938.00;10480637;28;20259;-74
2021/07/29 16:48:33;;;;;;;6.32;3.20;;;;;;;21.89;41.21;99928.97;10478000;28;20237;-74
2021/07/29 16:53:36;;;;;;;6.38;2.95;;;;;;;22.30;39.00;99936.09;10477163;28;20914;-74
2021/07/29 16:58:39;;;;;;;4.57;3.00;;;;;;;23.78;36.78;99923.53;10478610;28;20240;-74
2021/07/29 17:03:44;;;;;;;6.15;3.10;;;;;;;26.28;33.13;99919.03;10474689;28;20336;-77
2021/07/29 17:08:47;;;;;;;7.30;2.90;;;;;;;26.87;31.76;99917.03;10473781;28;20228;-74
2021/07/29 17:13:50;;;;;;;4.28;3.00;;;;;;;26.54;32.06;99922.34;10455576;28;20240;-75
2021/07/29 17:18:54;;;;;;;5.60;3.00;;;;;;;25.61;34.12;99913.69;10474287;28;20228;-75
2021/07/29 17:23:57;;;;;;;5.57;3.40;;;;;;;25.11;33.88;99914.84;10475108;28;20236;-74
2021/07/29 17:28:59;;;;;;;6.78;3.22;;;;;;;26.20;33.16;99908.34;10476480;28;20236;-75
2021/07/29 17:34:04;;;;;;;4.72;2.55;;;;;;;24.12;36.56;99922.22;10476543;28;20344;-74
2021/07/29 17:39:06;;;;;;;4.07;2.83;;;;;;;24.63;35.05;99910.13;10474433;28;20232;-74
2021/07/29 17:44:09;;;;;;;5.68;2.78;;;;;;;26.44;33.50;99901.78;10472983;28;20730;-74
2021/07/29 17:49:13;;;;;;;3.83;2.25;;;;;;;26.79;32.50;99909.13;10471731;28;20636;-74
2021/07/29 17:54:16;;;;;;;4.15;2.65;;;;;;;25.65;33.92;99901.22;10455174;28;20293;-74
2021/07/29 17:59:20;;;;;;;7.18;3.05;;;;;;;22.97;37.82;99903.94;10467778;28;20245;-74
2021/07/29 18:04:24;;;;;;;4.10;3.15;;;;;;;21.56;40.78;99904.31;10473054;28;21505;-74
2021/07/29 18:09:27;;;;;;;5.40;2.88;;;;;;;20.39;43.16;99909.91;10476269;28;20620;-74
2021/07/29 18:14:30;;;;;;;6.85;3.10;;;;;;;19.76;44.19;99918.00;10471168;28;20432;-74
2021/07/29 18:19:35;;;;;;;5.00;2.65;;;;;;;19.46;44.76;99915.38;10469742;28;20315;-75
2021/07/29 18:24:38;;;;;;;7.43;3.10;;;;;;;19.05;45.31;99926.84;10472932;28;20224;-75
2021/07/29 18:29:41;;;;;;;3.70;2.75;;;;;;;18.94;45.86;99917.28;10472563;28;20248;-75
2021/07/29 18:34:47;;;;;;;5.68;2.67;;;;;;;18.65;45.07;99918.16;10473239;28;20321;-74
2021/07/29 18:39:49;;;;;;;2.60;2.40;;;;;;;18.49;45.55;99904.75;10471506;28;21432;-75
2021/07/29 18:44:52;;;;;;;2.88;2.30;;;;;;;18.32;44.99;99920.38;10474059;28;20243;-75
2021/07/29 18:49:56;;;;;;;7.40;2.55;;;;;;;18.29;45.35;99918.03;10490931;28;20731;-75
2021/07/29 18:54:59;;;;;;;6.35;2.65;;;;;;;18.05;45.82;99922.69;10512793;28;20835;-75
2021/07/29 19:00:03;;;;;;;5.25;3.10;;;;;;;18.09;45.43;99923.16;10497383;28;20251;-74
2021/07/29 19:05:09;;;;;;;4.07;2.33;;;;;;;18.16;45.56;99926.00;10514456;28;20594;-74
2021/07/29 19:10:12;;;;;;;6.07;2.50;;;;;;;18.06;45.77;99924.38;10512604;28;20360;-74
2021/07/29 19:15:15;;;;;;;3.92;2.60;;;;;;;17.92;46.09;99923.28;10514215;28;20243;-74
2021/07/29 19:20:21;;;;;;;4.32;2.60;;;;;;;17.85;46.76;99933.22;10513706;28;21485;-75
2021/07/29 19:25:24;;;;;;;5.38;2.88;;;;;;;17.75;46.78;99929.91;10513920;28;20231;-75
2021/07/29 19:30:27;;;;;;;3.28;2.53;;;;;;;17.77;46.95;99938.72;10508063;28;21849;-75
2021/07/29 19:35:31;;;;;;;4.18;3.03;;;;;;;17.65;47.27;99935.56;10470897;28;20228;-74
2021/07/29 19:40:34;;;;;;;6.18;2.97;;;;;;;17.62;48.09;99945.94;10470406;28;20242;-75
2021/07/29 19:45:37;;;;;;;4.13;2.50;;;;;;;17.30;49.31;99949.72;10469043;28;20220;-75
2021/07/29 19:50:42;;;;;;;5.55;3.33;;;;;;;17.32;49.20;99953.09;10468553;28;20628;-75
2021/07/29 19:55:45;;;;;;;4.80;3.00;;;;;;;17.35;49.50;99952.75;10465124;28;20244;-74
2021/07/29 20:00:48;;;;;;;6.95;3.10;;;;;;;17.24;49.93;99957.53;10450339;28;20236;-75
2021/07/29 20:05:54;;;;;;;7.28;3.00;;;;;;;17.03;50.67;99957.28;10468020;28;20359;-75
2021/07/29 20:10:57;;;;;;;4.88;3.20;;;;;;;17.13;50.68;99966.09;10468041;28;20232;-75
2021/07/29 20:16:00;;;;;;;6.50;4.50;;;;;;;16.89;51.24;99956.16;10449831;28;20310;-75
2021/07/29 20:21:05;;;;;;;9.00;3.38;;;;;;;17.15;50.42;99947.75;10467563;28;20233;-74
2021/07/29 20:26:08;;;;;;;6.18;3.40;;;;;;;17.23;50.45;99957.75;10467226;28;20632;-75
2021/07/29 20:31:11;;;;;;;4.35;2.70;;;;;;;17.24;50.41;99956.69;10467079;28;20232;-75
2021/07/29 20:36:15;;;;;;;6.03;3.42;;;;;;;17.15;50.68;99953.19;10469974;28;20250;-74
2021/07/29 20:41:18;;;;;;;5.10;3.20;;;;;;;17.10;50.81;99950.13;10474462;28;20238;-75
2021/07/29 20:46:21;;;;;;;4.78;3.17;;;;;;;17.05;51.07;99952.53;10474059;28;20228;-74
2021/07/29 20:51:25;;;;;;;9.27;3.15;;;;;;;16.99;51.43;99945.09;10498001;28;20258;-75
2021/07/29 20:56:28;;;;;;;4.97;3.15;;;;;;;16.92;51.32;99942.25;10515892;28;20235;-74
2021/07/29 21:01:32;;;;;;;5.68;2.90;;;;;;;16.92;51.07;99944.97;10517500;28;20247;-75
2021/07/29 21:06:36;;;;;;;5.35;3.38;;;;;;;16.89;51.49;99941.75;10518033;28;20618;-75
2021/07/29 21:11:40;;;;;;;7.10;3.08;;;;;;;16.82;51.73;99938.91;10519824;28;20238;-75
2021/07/29 21:16:42;;;;;;;6.30;3.33;;;;;;;16.78;51.96;99951.13;10511945;28;20741;-75
2021/07/29 21:21:48;;;;;;;5.45;3.72;;;;;;;16.83;51.97;99954.16;10474867;28;20303;-74
2021/07/29 21:26:51;;;;;;;7.28;3.53;;;;;;;16.77;52.04;99941.31;10475145;28;20232;-74
2021/07/29 21:31:54;;;;;;;4.25;3.42;;;;;;;16.81;52.16;99942.63;10455267;28;20266;-75
2021/07/29 21:36:58;;;;;;;4.85;3.05;;;;;;;16.82;52.37;99949.75;10464688;28;20316;-74
2021/07/29 21:42:01;;;;;;;6.30;3.10;;;;;;;16.75;52.71;99946.03;10457249;28;20232;-75
2021/07/29 21:47:04;;;;;;;6.43;3.45;;;;;;;16.63;52.48;99940.16;10432519;28;20263;-75
2021/07/29 21:52:08;;;;;;;7.25;3.58;;;;;;;16.64;52.61;99944.56;10430502;28;20237;-75
2021/07/29 21:57:11;;;;;;;7.55;3.95;;;;;;;16.57;52.58;99947.13;10420567;28;20761;-75
2021/07/29 22:02:14;;;;;;;5.10;3.20;;;;;;;16.52;52.63;99949.50;10475495;28;20231;-75
2021/07/29 22:07:19;;;;;;;6.25;3.03;;;;;;;16.38;52.60;99943.97;10472732;28;20232;-75
2021/07/29 22:12:21;;;;;;;5.32;2.78;;;;;;;16.33;52.80;99948.03;10472433;28;20859;-75
2021/07/29 22:17:24;;;;;;;8.50;3.08;;;;;;;16.26;52.71;99947.00;10471762;28;20267;-75
2021/07/29 22:22:28;;;;;;;7.28;3.10;;;;;;;16.19;53.08;99951.41;10475317;28;20228;-75
2021/07/29 22:27:32;;;;;;;6.00;2.88;;;;;;;16.05;53.33;99952.13;10454568;28;20311;-75
2021/07/29 22:32:34;;;;;;;7.43;3.75;;;;;;;16.05;53.49;99954.81;10473212;28;20240;-75
2021/07/29 22:37:39;;;;;;;4.65;3.15;;;;;;;15.93;53.54;99952.47;10469972;28;20236;-75
2021/07/29 22:42:42;;;;;;;7.90;3.10;;;;;;;15.73;54.17;99956.50;10473084;28;20260;-75
2021/07/29 22:47:45;;;;;;;8.98;3.40;;;;;;;15.79;53.90;99960.41;10470300;28;20240;-75
2021/07/29 22:52:49;;;;;;;5.15;3.45;;;;;;;15.73;54.00;99959.22;10475643;28;20244;-75
2021/07/29 22:57:53;;;;;;;6.65;3.38;;;;;;;15.55;54.86;99961.22;10473135;28;20264;-75
2021/07/29 23:02:55;;;;;;;5.68;3.28;;;;;;;15.39;55.33;99952.06;10471986;28;20240;-75
2021/07/29 23:08:01;;;;;;;9.63;3.85;;;;;;;15.30;55.71;99949.47;10469216;28;20298;-75
2021/07/29 23:13:04;;;;;;;8.25;3.78;;;;;;;15.27;55.95;99954.19;10472333;28;20272;-75
2021/07/29 23:18:07;;;;;;;7.47;4.15;;;;;;;15.21;56.14;99957.56;10471764;28;20778;-75
2021/07/29 23:23:16;;;;;;;8.57;4.20;;;;;;;15.16;56.02;99953.66;10472825;28;20662;-75
2021/07/29 23:28:19;;;;;;;5.60;3.30;;;;;;;15.11;56.39;99940.66;10469682;28;20803;-75
2021/07/29 23:33:21;;;;;;;10.00;4.32;;;;;;;14.91;57.04;99939.22;10470687;28;20243;-75
2021/07/29 23:38:26;;;;;;;9.07;4.22;;;;;;;14.82;57.33;99941.03;10472148;28;20279;-75
2021/07/29 23:43:29;;;;;;;7.40;4.40;;;;;;;14.68;58.06;99938.97;10469288;28;20413;-74
2021/07/29 23:48:32;;;;;;;8.15;5.22;;;;;;;14.57;58.62;99937.38;10471526;28;20243;-77
2021/07/29 23:53:36;;;;;;;8.60;4.25;;;;;;;14.49;58.71;99926.53;10470141;28;20228;-75
2021/07/29 23:58:38;;;;;;;7.40;4.30;;;;;;;14.45;59.03;99925.97;10471313;28;20287;-75
